Kivalina Airport
PAVL : now visible

Airfield :











YOU CAN JOIN US ON...

 
LOGIN :

Register | Disclaimer

   EN    FR    IT 

 









Legend :    VFR   Marginal VFR   IFR   Intensive IFR   Very Intensive IFR
Visi :
Ceiling :
>= 8 km
>= 3000ft
5 to 8 km
1000 to 3000 ft
1500m to 5 km
500 to 1000 ft
800 to 1500m
200 to 500 ft
< 800m
< 200 ft
Symbols :   Thunderstorms  Fog  Heavy snow  Heavy precipitations  Wind > 20 kt






- Airport Elevation : 13 ft
- IATA code : KVL


PAVL - Kivalina

CURRENT METAR :
  • 182039Z AUTO 24005KT 5SM BR OVC004 M03/M04 A3005 RMK AO2 T10331039 TSNO

EXPIRED METARs :
  • 182004Z AUTO 26007KT 3SM BR OVC003 M03/M04 A3005 RMK AO2 T10331039 TSNO
  • 181957Z AUTO 26007KT 1 1/2SM BR OVC003 M03/M04 A3005 RMK AO2 VIS 1V3 T10331044 TSNO
  • 181953Z AUTO 26007KT 2SM BR OVC004 M03/M04 A3005 RMK AO2 VIS 1 1/2V4 SLP176 T10331039 TSNO
  • 181853Z AUTO 27008KT 3SM BR OVC002 M03/M04 A3004 RMK AO2 SLP173 T10331039 TSNO
  • 181836Z AUTO 27008KT 1 1/4SM BR OVC002 M03/M04 A3004 RMK AO2 T10331039 TSNO
  • 181812Z AUTO 27010KT 3/4SM BR OVC002 M04/M04 A3004 RMK AO2 VIS 1/2V2 1/2 T10391044 TSNO
  • 181803Z AUTO 28011KT 1SM BR OVC002 M04/M04 A3004 RMK AO2 T10391044 TSNO

TAF N/A
PAZA FIR / North America



MET'MAP, your aeronautical weather chart ! - Copyright ORBIFLY December 2007 - Disclaimer

ORBIFLY MET'MAP TEAM :

Programming & Development : Alexandra Zaïnal
Concept & original design : Baudouin d'Aumeries
Assistance for programming : Marc-Olivier Méhu
Technical & hardware support : Manuel Goepfert

Contact : metmap@orbifly.com




SOURCES & CREDITS :

   NOAA       Earth
Advisory